createdAt,value
2019-01-28T00:00:39.253Z,79.90
2019-01-28T00:01:14.124Z,79.80
2019-01-28T00:01:48.967Z,80.10
2019-01-28T00:02:23.779Z,80.10
2019-01-28T00:02:58.988Z,79.80
2019-01-28T00:03:33.501Z,79.40
2019-01-28T00:04:08.426Z,78.60
2019-01-28T00:04:43.016Z,78.60
2019-01-28T00:05:17.818Z,78.90
2019-01-28T00:05:52.552Z,79.30
2019-01-28T00:06:27.038Z,79.50
2019-01-28T00:07:01.552Z,79.60
2019-01-28T00:07:36.105Z,79.90
2019-01-28T00:08:10.667Z,80.00
2019-01-28T00:08:45.210Z,80.00
2019-01-28T00:09:19.739Z,79.80
2019-01-28T00:09:54.304Z,79.70
2019-01-28T00:10:28.805Z,79.50
2019-01-28T00:11:03.372Z,79.50
2019-01-28T00:11:37.903Z,79.50
2019-01-28T00:12:13.977Z,79.60
2019-01-28T00:12:49.033Z,79.80
2019-01-28T00:13:23.601Z,79.90
2019-01-28T00:13:58.326Z,80.00
2019-01-28T00:14:32.916Z,79.90
2019-01-28T00:15:08.569Z,79.90
2019-01-28T00:15:44.021Z,79.80
2019-01-28T00:16:18.865Z,79.80
2019-01-28T00:16:53.362Z,79.80
2019-01-28T00:17:28.860Z,79.90
2019-01-28T00:18:03.414Z,79.50
2019-01-28T00:18:37.925Z,79.10
2019-01-28T00:19:12.542Z,78.60
2019-01-28T00:19:47.072Z,78.40
2019-01-28T00:20:21.564Z,78.10
2019-01-28T00:20:56.148Z,77.60
2019-01-28T00:21:31.086Z,77.80
2019-01-28T00:22:05.834Z,78.10
2019-01-28T00:22:40.349Z,77.90
2019-01-28T00:23:14.921Z,78.20
2019-01-28T00:23:49.418Z,77.90
2019-01-28T00:24:23.954Z,77.80
2019-01-28T00:24:58.511Z,78.00
2019-01-28T00:25:33.070Z,78.00
2019-01-28T00:26:07.807Z,78.00
2019-01-28T00:26:42.305Z,77.80
2019-01-28T00:27:16.793Z,77.80
2019-01-28T00:27:51.305Z,77.40
2019-01-28T00:28:25.800Z,77.50
2019-01-28T00:29:00.316Z,77.30
2019-01-28T00:29:34.868Z,77.30
2019-01-28T00:30:11.021Z,77.20
2019-01-28T00:30:45.529Z,77.00
2019-01-28T00:31:20.036Z,77.10
2019-01-28T00:31:54.551Z,77.20
2019-01-28T00:32:29.063Z,77.30
2019-01-28T00:33:03.562Z,77.20
2019-01-28T00:33:38.071Z,77.30
2019-01-28T00:34:12.564Z,77.20
2019-01-28T00:34:47.061Z,77.40
2019-01-28T00:35:21.636Z,76.90
2019-01-28T00:35:56.166Z,76.90
2019-01-28T00:36:30.787Z,76.80
2019-01-28T00:37:05.367Z,77.10
2019-01-28T00:37:39.917Z,77.10
2019-01-28T00:38:14.400Z,77.20
2019-01-28T00:38:48.923Z,77.80
2019-01-28T00:39:23.468Z,77.80
2019-01-28T00:39:57.984Z,77.30
2019-01-28T00:40:32.477Z,77.60
2019-01-28T00:41:06.979Z,77.80
2019-01-28T00:41:41.573Z,77.80
2019-01-28T00:42:16.145Z,77.80
2019-01-28T00:42:50.641Z,78.00
2019-01-28T00:43:25.131Z,78.40
2019-01-28T00:43:59.728Z,78.60
2019-01-28T00:44:34.232Z,78.90
2019-01-28T00:45:11.557Z,78.70
2019-01-28T00:45:46.119Z,78.60
2019-01-28T00:46:20.665Z,78.80
2019-01-28T00:46:55.167Z,79.20
2019-01-28T00:47:29.741Z,79.30
2019-01-28T00:48:04.820Z,79.40
2019-01-28T00:48:39.335Z,79.70
2019-01-28T00:49:13.910Z,79.70
2019-01-28T00:49:48.399Z,80.10
2019-01-28T00:50:22.897Z,80.50
2019-01-28T00:50:57.412Z,80.70
2019-01-28T00:51:32.049Z,81.10
2019-01-28T00:52:06.550Z,81.30
2019-01-28T00:52:41.295Z,81.50
2019-01-28T00:53:15.876Z,81.40
2019-01-28T00:53:50.439Z,81.40
2019-01-28T00:54:24.933Z,81.40
2019-01-28T00:54:59.442Z,81.50
2019-01-28T00:55:34.005Z,81.20
2019-01-28T00:56:08.511Z,80.90
2019-01-28T00:56:43.024Z,80.80
2019-01-28T00:57:17.557Z,81.00
2019-01-28T00:57:52.057Z,80.90
2019-01-28T00:58:27.065Z,81.00
2019-01-28T00:59:01.572Z,80.90
2019-01-28T00:59:36.374Z,80.90
2019-01-28T01:00:19.766Z,80.90
2019-01-28T01:00:54.411Z,80.70
2019-01-28T01:01:28.996Z,80.60
2019-01-28T01:02:09.178Z,80.70
2019-01-28T01:02:43.760Z,80.70
2019-01-28T01:03:18.395Z,80.50
2019-01-28T01:03:53.014Z,80.70
2019-01-28T01:04:27.501Z,80.70
2019-01-28T01:05:02.076Z,80.70
2019-01-28T01:05:36.567Z,80.50
2019-01-28T01:06:11.210Z,80.50
2019-01-28T01:06:45.777Z,80.20
2019-01-28T01:07:21.905Z,80.20
2019-01-28T01:07:56.601Z,80.40
2019-01-28T01:08:31.128Z,80.10
2019-01-28T01:09:07.411Z,80.10
2019-01-28T01:09:41.914Z,80.00
2019-01-28T01:10:16.450Z,79.90
2019-01-28T01:10:51.015Z,79.80
2019-01-28T01:11:25.606Z,79.90
2019-01-28T01:12:01.223Z,80.00
2019-01-28T01:12:37.901Z,79.90
2019-01-28T01:13:12.432Z,79.60
2019-01-28T01:13:46.984Z,79.40
2019-01-28T01:14:23.422Z,79.40
2019-01-28T01:14:57.995Z,79.50
2019-01-28T01:15:32.505Z,79.60
2019-01-28T01:16:07.516Z,79.60
2019-01-28T01:16:42.089Z,79.60
2019-01-28T01:17:16.670Z,79.50
2019-01-28T01:17:51.245Z,79.60
2019-01-28T01:18:25.872Z,80.30
2019-01-28T01:19:00.372Z,79.70
2019-01-28T01:19:34.891Z,80.50
2019-01-28T01:20:12.628Z,80.00
2019-01-28T01:20:47.253Z,79.90
2019-01-28T01:21:21.797Z,80.00
2019-01-28T01:21:56.323Z,80.00
2019-01-28T01:22:30.906Z,79.90
2019-01-28T01:23:07.341Z,80.10
2019-01-28T01:23:41.832Z,80.20
2019-01-28T01:24:16.345Z,80.20
2019-01-28T01:24:50.880Z,80.40
2019-01-28T01:25:25.429Z,80.50
2019-01-28T01:26:00.052Z,80.40
2019-01-28T01:26:34.924Z,80.50
2019-01-28T01:27:09.596Z,80.50
2019-01-28T01:27:45.120Z,80.00
2019-01-28T01:28:19.970Z,79.80
2019-01-28T01:28:54.536Z,80.00
2019-01-28T01:30:05.505Z,80.20
2019-01-28T01:30:40.000Z,80.40
2019-01-28T01:31:15.805Z,80.20
2019-01-28T01:31:50.495Z,80.30
2019-01-28T01:32:25.041Z,80.40
2019-01-28T01:32:59.607Z,80.40
2019-01-28T01:33:34.432Z,80.50
2019-01-28T01:34:09.012Z,80.70
2019-01-28T01:34:43.560Z,81.10
2019-01-28T01:35:18.066Z,81.10
2019-01-28T01:35:52.679Z,81.00
2019-01-28T01:36:27.205Z,80.90
2019-01-28T01:37:01.738Z,80.90
2019-01-28T01:37:36.352Z,80.90
2019-01-28T01:38:10.917Z,80.70
2019-01-28T01:38:45.411Z,80.60
2019-01-28T01:39:19.978Z,80.40
2019-01-28T01:39:54.552Z,80.10
2019-01-28T01:40:29.050Z,80.10
2019-01-28T01:41:04.356Z,80.20
2019-01-28T01:41:40.182Z,80.30
2019-01-28T01:42:18.450Z,80.50
2019-01-28T01:42:52.950Z,80.50
2019-01-28T01:43:27.480Z,80.60
2019-01-28T01:44:02.844Z,80.30
2019-01-28T01:44:37.341Z,80.30
2019-01-28T01:45:14.716Z,80.00
2019-01-28T01:45:49.282Z,80.00
2019-01-28T01:46:23.807Z,79.90
2019-01-28T01:46:58.300Z,79.80
2019-01-28T01:47:33.052Z,79.80
2019-01-28T01:48:07.624Z,79.90
2019-01-28T01:48:42.202Z,79.90
2019-01-28T01:49:16.690Z,80.00
2019-01-28T01:49:51.248Z,80.00
2019-01-28T01:50:25.817Z,80.30
2019-01-28T01:51:00.324Z,80.40
2019-01-28T01:51:34.898Z,80.40
2019-01-28T01:52:09.476Z,80.70
2019-01-28T01:52:43.970Z,80.90
2019-01-28T01:53:18.461Z,81.00
2019-01-28T01:53:53.015Z,81.20
2019-01-28T01:54:27.588Z,81.60
2019-01-28T01:55:02.074Z,81.90
2019-01-28T01:55:36.571Z,82.20
2019-01-28T01:56:11.188Z,82.30
2019-01-28T01:56:45.710Z,82.70
2019-01-28T01:57:20.212Z,83.10
2019-01-28T01:57:54.870Z,83.30
2019-01-28T01:58:29.365Z,83.50
2019-01-28T01:59:05.094Z,83.80
2019-01-28T01:59:39.606Z,84.00
2019-01-28T02:00:16.359Z,84.40
2019-01-28T02:00:51.157Z,84.50
2019-01-28T02:01:25.644Z,84.60
2019-01-28T02:02:00.135Z,84.80
2019-01-28T02:02:34.762Z,85.00
2019-01-28T02:03:09.265Z,85.00
2019-01-28T02:03:43.843Z,85.40
2019-01-28T02:04:18.332Z,85.30
2019-01-28T02:04:52.867Z,85.40
2019-01-28T02:05:27.499Z,85.70
2019-01-28T02:06:02.011Z,85.70
2019-01-28T02:06:36.508Z,85.60
2019-01-28T02:07:12.638Z,85.50
2019-01-28T02:07:47.121Z,85.70
2019-01-28T02:08:21.644Z,85.80
2019-01-28T02:08:57.219Z,85.80
2019-01-28T02:09:31.879Z,85.80
2019-01-28T02:10:11.654Z,85.70
2019-01-28T02:10:46.521Z,85.80
2019-01-28T02:11:21.008Z,85.80
2019-01-28T02:11:57.048Z,85.90
2019-01-28T02:12:31.556Z,86.10
2019-01-28T02:13:06.369Z,86.10
2019-01-28T02:13:40.863Z,85.90
2019-01-28T02:14:15.398Z,85.90
2019-01-28T02:14:49.950Z,85.70
2019-01-28T02:15:24.457Z,85.70
2019-01-28T02:15:58.960Z,85.60
2019-01-28T02:16:33.613Z,85.20
2019-01-28T02:17:08.103Z,85.40
2019-01-28T02:17:42.610Z,85.20
2019-01-28T02:18:17.233Z,85.00
2019-01-28T02:18:51.723Z,84.90
2019-01-28T02:19:26.229Z,85.10
2019-01-28T02:20:00.948Z,85.20
2019-01-28T02:20:35.456Z,85.10
2019-01-28T02:21:10.549Z,84.80
2019-01-28T02:21:45.522Z,84.50
2019-01-28T02:22:20.065Z,84.10
2019-01-28T02:22:54.580Z,83.50
2019-01-28T02:23:29.142Z,83.40
2019-01-28T02:24:03.791Z,83.30
2019-01-28T02:24:38.295Z,83.20
2019-01-28T02:25:15.724Z,83.30
2019-01-28T02:25:50.224Z,83.30
2019-01-28T02:26:24.894Z,83.20
2019-01-28T02:27:01.100Z,83.10
2019-01-28T02:27:35.668Z,83.30
2019-01-28T02:28:10.253Z,83.30
2019-01-28T02:28:44.930Z,83.00
2019-01-28T02:29:19.722Z,82.90
2019-01-28T02:29:54.203Z,82.90
2019-01-28T02:30:28.743Z,82.90
2019-01-28T02:31:03.231Z,82.80
2019-01-28T02:31:37.749Z,82.80
2019-01-28T02:32:12.440Z,82.80
2019-01-28T02:32:47.044Z,82.60
2019-01-28T02:33:21.816Z,82.60
2019-01-28T02:33:56.385Z,82.70
2019-01-28T02:34:30.968Z,83.00
2019-01-28T02:35:07.113Z,82.90
2019-01-28T02:35:41.741Z,83.00
2019-01-28T02:36:16.228Z,83.20
2019-01-28T02:36:50.737Z,82.90
2019-01-28T02:37:25.356Z,82.80
2019-01-28T02:37:59.845Z,82.70
2019-01-28T02:38:34.339Z,82.40
2019-01-28T02:39:09.280Z,82.30
2019-01-28T02:39:44.183Z,82.40
2019-01-28T02:40:18.917Z,82.60
2019-01-28T02:40:53.480Z,82.60
2019-01-28T02:41:28.049Z,83.30
2019-01-28T02:42:02.963Z,82.80
2019-01-28T02:42:37.514Z,82.80
2019-01-28T02:43:12.012Z,82.60
2019-01-28T02:43:46.525Z,82.60
2019-01-28T02:44:21.078Z,82.40
2019-01-28T02:44:55.569Z,82.30
2019-01-28T02:45:30.076Z,82.40
2019-01-28T02:46:04.653Z,82.50
2019-01-28T02:46:39.217Z,82.40
2019-01-28T02:47:13.730Z,82.30
2019-01-28T02:47:48.213Z,82.30
2019-01-28T02:48:22.792Z,82.50
2019-01-28T02:48:57.298Z,82.50
2019-01-28T02:49:31.899Z,82.40
2019-01-28T02:50:09.800Z,82.20
2019-01-28T02:50:44.307Z,82.20
2019-01-28T02:51:18.808Z,82.50
2019-01-28T02:51:53.316Z,82.30
2019-01-28T02:52:27.885Z,82.20
2019-01-28T02:53:02.438Z,82.00
2019-01-28T02:53:37.015Z,81.90
2019-01-28T02:54:11.526Z,81.60
2019-01-28T02:54:46.115Z,81.50
2019-01-28T02:55:20.675Z,81.60
2019-01-28T02:55:55.269Z,81.80
2019-01-28T02:56:29.763Z,81.90
2019-01-28T02:57:04.339Z,81.60
2019-01-28T02:57:38.851Z,81.40
2019-01-28T02:58:13.407Z,81.20
2019-01-28T02:58:47.896Z,81.10
2019-01-28T02:59:22.413Z,81.20
2019-01-28T02:59:56.901Z,81.40
2019-01-28T03:00:31.456Z,81.40
2019-01-28T03:01:06.006Z,81.00
2019-01-28T03:01:40.556Z,80.70
2019-01-28T03:02:15.075Z,80.70
2019-01-28T03:02:50.315Z,80.80
2019-01-28T03:03:25.149Z,80.80
2019-01-28T03:03:59.745Z,80.70
2019-01-28T03:04:34.225Z,80.50
2019-01-28T03:05:09.270Z,80.50
2019-01-28T03:05:44.280Z,80.50
2019-01-28T03:06:18.978Z,80.60
2019-01-28T03:06:53.510Z,80.40
2019-01-28T03:07:28.050Z,80.30
2019-01-28T03:08:02.560Z,80.40
2019-01-28T03:08:37.444Z,80.60
2019-01-28T03:09:11.938Z,80.50
2019-01-28T03:09:46.442Z,80.60
2019-01-28T03:10:22.129Z,80.70
2019-01-28T03:10:56.630Z,80.70
2019-01-28T03:11:31.136Z,80.60
2019-01-28T03:12:05.773Z,80.60
2019-01-28T03:12:40.256Z,80.50
2019-01-28T03:13:14.754Z,80.30
2019-01-28T03:13:49.562Z,80.30
2019-01-28T03:14:24.124Z,80.40
2019-01-28T03:14:58.645Z,80.20
2019-01-28T03:15:33.174Z,80.40
2019-01-28T03:16:09.031Z,80.20
2019-01-28T03:16:43.577Z,80.40
2019-01-28T03:17:18.454Z,80.60
2019-01-28T03:17:52.965Z,80.70
2019-01-28T03:18:27.521Z,80.90
2019-01-28T03:19:02.089Z,80.90
2019-01-28T03:19:36.749Z,81.00
2019-01-28T03:20:13.377Z,80.90
2019-01-28T03:20:48.375Z,81.10
2019-01-28T03:21:22.935Z,81.20
2019-01-28T03:21:57.447Z,81.30
2019-01-28T03:22:31.969Z,81.30
2019-01-28T03:23:07.001Z,81.20
2019-01-28T03:23:41.567Z,81.40
2019-01-28T03:24:16.137Z,81.60
2019-01-28T03:24:50.632Z,81.30
2019-01-28T03:25:25.357Z,81.00
2019-01-28T03:25:59.911Z,81.00
2019-01-28T03:26:34.487Z,81.00
2019-01-28T03:27:09.037Z,80.90
2019-01-28T03:27:43.592Z,80.90
2019-01-28T03:28:18.147Z,80.80
2019-01-28T03:28:58.653Z,81.10
2019-01-28T03:29:33.270Z,80.40
2019-01-28T03:30:11.410Z,80.50
2019-01-28T03:30:46.170Z,80.70
2019-01-28T03:31:20.702Z,80.90
2019-01-28T03:31:55.359Z,80.80
2019-01-28T03:32:30.078Z,80.90
2019-01-28T03:33:04.955Z,80.80
2019-01-28T03:33:39.517Z,80.70
2019-01-28T03:34:14.015Z,80.70
2019-01-28T03:34:48.518Z,80.80
2019-01-28T03:35:23.005Z,80.90
2019-01-28T03:35:57.581Z,80.90
2019-01-28T03:36:32.146Z,81.00
2019-01-28T03:37:07.246Z,81.30
2019-01-28T03:37:41.838Z,81.40
2019-01-28T03:38:16.397Z,81.50
2019-01-28T03:38:51.226Z,81.50
2019-01-28T03:39:25.764Z,81.50
2019-01-28T03:40:00.344Z,81.70
2019-01-28T03:40:34.842Z,81.60
2019-01-28T03:41:09.429Z,81.70
2019-01-28T03:41:43.977Z,81.80
2019-01-28T03:42:18.889Z,81.80
2019-01-28T03:42:53.495Z,81.90
2019-01-28T03:43:29.391Z,81.90
2019-01-28T03:44:06.056Z,81.90
2019-01-28T03:44:40.603Z,81.80
2019-01-28T03:45:17.264Z,81.80
2019-01-28T03:45:51.810Z,81.80
2019-01-28T03:46:26.375Z,82.40
2019-01-28T03:47:00.869Z,81.30
2019-01-28T03:47:35.375Z,81.40
2019-01-28T03:48:09.925Z,81.40
2019-01-28T03:48:44.758Z,81.60
2019-01-28T03:49:19.386Z,81.80
2019-01-28T03:49:54.416Z,81.80
2019-01-28T03:50:28.979Z,81.90
2019-01-28T03:51:03.560Z,81.90
2019-01-28T03:51:38.294Z,81.70
2019-01-28T03:52:14.428Z,81.40
2019-01-28T03:52:51.483Z,81.50
2019-01-28T03:53:26.090Z,81.80
2019-01-28T03:54:00.634Z,82.00
2019-01-28T03:54:35.174Z,81.80
2019-01-28T03:55:12.173Z,81.90
2019-01-28T03:55:46.669Z,81.80
2019-01-28T03:56:21.161Z,81.40
2019-01-28T03:56:55.653Z,81.00
2019-01-28T03:57:31.253Z,81.10
2019-01-28T03:58:05.777Z,81.30
2019-01-28T03:58:40.341Z,81.50
2019-01-28T03:59:14.904Z,81.20
2019-01-28T03:59:49.415Z,80.90
2019-01-28T04:00:26.146Z,80.80
2019-01-28T04:01:00.647Z,81.00
2019-01-28T04:01:35.214Z,81.00
2019-01-28T04:02:09.701Z,81.00
2019-01-28T04:02:44.335Z,80.90
2019-01-28T04:03:18.812Z,80.70
2019-01-28T04:03:53.605Z,80.70
2019-01-28T04:04:28.106Z,80.10
2019-01-28T04:05:02.668Z,80.00
2019-01-28T04:05:37.185Z,79.80
2019-01-28T04:06:11.796Z,79.80
2019-01-28T04:06:46.384Z,80.00
2019-01-28T04:07:20.949Z,80.30
2019-01-28T04:07:55.611Z,80.30
2019-01-28T04:08:31.460Z,80.10
2019-01-28T04:09:08.070Z,80.30
2019-01-28T04:09:42.580Z,80.20
2019-01-28T04:10:19.182Z,79.80
2019-01-28T04:10:53.676Z,79.50
2019-01-28T04:11:30.923Z,79.00
2019-01-28T04:12:05.850Z,79.10
2019-01-28T04:12:40.442Z,79.30
2019-01-28T04:13:14.995Z,79.10
2019-01-28T04:13:49.485Z,79.10
2019-01-28T04:14:24.016Z,78.50
2019-01-28T04:14:58.533Z,78.30
2019-01-28T04:15:35.368Z,77.40
2019-01-28T04:16:09.856Z,77.40
2019-01-28T04:16:44.352Z,77.50
2019-01-28T04:17:19.009Z,77.70
2019-01-28T04:17:54.070Z,77.60
2019-01-28T04:18:28.602Z,77.50
2019-01-28T04:19:03.109Z,77.00
2019-01-28T04:19:37.673Z,76.90
2019-01-28T04:20:14.606Z,76.60
2019-01-28T04:20:49.119Z,76.60
2019-01-28T04:21:24.602Z,76.50
2019-01-28T04:21:59.176Z,76.50
2019-01-28T04:22:35.872Z,76.60
2019-01-28T04:23:10.436Z,76.40
2019-01-28T04:23:44.949Z,76.60
2019-01-28T04:24:20.730Z,76.60
2019-01-28T04:24:55.300Z,76.50
2019-01-28T04:25:29.804Z,76.10
2019-01-28T04:26:04.482Z,76.00
2019-01-28T04:26:38.970Z,76.00
2019-01-28T04:27:13.453Z,76.00
2019-01-28T04:27:47.949Z,76.40
2019-01-28T04:28:22.433Z,75.80
2019-01-28T04:28:56.979Z,76.00
2019-01-28T04:29:35.896Z,75.80
2019-01-28T04:30:19.257Z,75.70
2019-01-28T04:30:53.758Z,75.90
2019-01-28T04:31:28.625Z,76.00
2019-01-28T04:32:03.220Z,75.70
2019-01-28T04:32:37.732Z,75.40
2019-01-28T04:33:12.284Z,75.10
2019-01-28T04:33:46.809Z,75.30
2019-01-28T04:34:24.019Z,75.40
2019-01-28T04:34:58.526Z,75.50
2019-01-28T04:35:33.035Z,75.20
2019-01-28T04:36:07.514Z,75.30
2019-01-28T04:36:42.008Z,75.50
2019-01-28T04:37:16.616Z,75.70
2019-01-28T04:37:51.117Z,75.60
2019-01-28T04:38:25.677Z,75.70
2019-01-28T04:39:00.168Z,75.90
2019-01-28T04:39:34.685Z,75.90
2019-01-28T04:40:11.791Z,75.80
2019-01-28T04:40:46.680Z,75.60
2019-01-28T04:41:21.197Z,75.60
2019-01-28T04:41:55.689Z,75.50
2019-01-28T04:42:30.178Z,75.20
2019-01-28T04:43:10.689Z,75.00
2019-01-28T04:43:45.233Z,75.10
2019-01-28T04:44:21.106Z,75.20
2019-01-28T04:45:17.378Z,75.40
2019-01-28T04:45:51.948Z,75.40
2019-01-28T04:46:26.465Z,75.20
2019-01-28T04:47:01.048Z,75.20
2019-01-28T04:47:35.619Z,75.40
2019-01-28T04:48:10.188Z,75.20
2019-01-28T04:48:44.698Z,75.10
2019-01-28T04:49:19.187Z,75.00
2019-01-28T04:49:53.680Z,74.70
2019-01-28T04:50:28.176Z,74.80
2019-01-28T04:51:02.805Z,75.80
2019-01-28T04:51:37.664Z,75.10
2019-01-28T04:52:12.259Z,75.30
2019-01-28T04:52:46.921Z,74.80
2019-01-28T04:53:21.458Z,74.80
2019-01-28T04:53:56.013Z,75.00
2019-01-28T04:54:30.503Z,75.10
2019-01-28T04:55:07.239Z,75.30
2019-01-28T04:55:42.030Z,75.40
2019-01-28T04:56:17.015Z,75.30
2019-01-28T04:56:51.581Z,75.00
2019-01-28T04:57:26.428Z,75.20
2019-01-28T04:58:02.873Z,75.40
2019-01-28T04:58:37.132Z,75.60
2019-01-28T04:59:13.351Z,76.40
2019-01-28T04:59:47.856Z,75.80
2019-01-28T05:00:24.774Z,75.80
2019-01-28T05:00:59.354Z,75.70
2019-01-28T05:01:33.919Z,75.70
2019-01-28T05:02:08.547Z,75.50
2019-01-28T05:02:43.775Z,75.40
2019-01-28T05:03:18.416Z,75.50
2019-01-28T05:03:52.914Z,75.20
2019-01-28T05:04:27.428Z,75.30
2019-01-28T05:05:01.932Z,75.30
2019-01-28T05:05:36.490Z,74.90
2019-01-28T05:06:11.056Z,75.00
2019-01-28T05:06:45.549Z,75.40
2019-01-28T05:07:21.272Z,75.50
2019-01-28T05:07:55.762Z,75.70
2019-01-28T05:08:30.283Z,75.40
2019-01-28T05:09:07.469Z,75.30
2019-01-28T05:09:41.962Z,75.30
2019-01-28T05:10:18.657Z,74.70
2019-01-28T05:10:53.210Z,74.10
2019-01-28T05:11:27.763Z,73.90
2019-01-28T05:12:02.342Z,74.30
2019-01-28T05:12:36.919Z,74.40
2019-01-28T05:13:11.453Z,74.40
2019-01-28T05:13:45.997Z,74.10
2019-01-28T05:14:22.200Z,74.30
2019-01-28T05:14:56.695Z,74.10
2019-01-28T05:15:31.250Z,74.00
2019-01-28T05:16:05.753Z,73.50
2019-01-28T05:16:40.318Z,73.30
2019-01-28T05:17:14.915Z,73.10
2019-01-28T05:17:49.952Z,73.20
2019-01-28T05:18:24.460Z,73.10
2019-01-28T05:18:59.046Z,73.30
2019-01-28T05:19:33.634Z,72.00
2019-01-28T05:20:11.253Z,71.80
2019-01-28T05:20:45.764Z,71.90
2019-01-28T05:21:20.267Z,72.10
2019-01-28T05:21:54.837Z,72.10
2019-01-28T05:22:29.350Z,72.10
2019-01-28T05:23:03.950Z,72.20
2019-01-28T05:23:38.508Z,72.40
2019-01-28T05:24:13.110Z,72.60
2019-01-28T05:24:47.677Z,72.60
2019-01-28T05:25:22.247Z,72.40
2019-01-28T05:25:56.760Z,72.60
2019-01-28T05:26:31.277Z,72.70
2019-01-28T05:27:05.856Z,72.60
2019-01-28T05:27:40.423Z,72.30
2019-01-28T05:28:15.000Z,72.40
2019-01-28T05:28:49.605Z,72.50
2019-01-28T05:29:24.116Z,72.50
2019-01-28T05:29:58.607Z,72.30
2019-01-28T05:30:33.166Z,72.20
2019-01-28T05:31:07.661Z,72.20
2019-01-28T05:31:42.187Z,72.20
2019-01-28T05:32:16.762Z,72.10
2019-01-28T05:32:51.704Z,72.00
2019-01-28T05:33:26.290Z,71.80
2019-01-28T05:34:00.869Z,71.80
2019-01-28T05:34:35.465Z,71.80
2019-01-28T05:35:12.902Z,71.70
2019-01-28T05:35:49.183Z,71.70
2019-01-28T05:36:23.671Z,71.80
2019-01-28T05:36:58.172Z,72.20
2019-01-28T05:37:32.669Z,71.70
2019-01-28T05:38:07.152Z,71.70
2019-01-28T05:38:41.686Z,71.90
2019-01-28T05:39:16.179Z,71.90
2019-01-28T05:39:50.662Z,71.70
2019-01-28T05:40:25.898Z,71.50
2019-01-28T05:41:00.404Z,71.70
2019-01-28T05:41:35.164Z,71.60
2019-01-28T05:42:09.753Z,71.30
2019-01-28T05:42:44.313Z,71.50
2019-01-28T05:43:19.009Z,71.50
2019-01-28T05:43:55.834Z,71.60
2019-01-28T05:44:30.098Z,71.60
2019-01-28T05:45:08.490Z,71.60
2019-01-28T05:45:43.093Z,71.40
2019-01-28T05:46:17.599Z,71.30
2019-01-28T05:46:52.119Z,71.20
2019-01-28T05:47:26.625Z,71.40
2019-01-28T05:48:01.205Z,71.50
2019-01-28T05:48:35.734Z,71.40
2019-01-28T05:49:11.858Z,71.50
2019-01-28T05:49:46.423Z,71.40
2019-01-28T05:50:21.540Z,71.60
2019-01-28T05:50:56.071Z,71.40
2019-01-28T05:51:30.652Z,71.20
2019-01-28T05:52:05.232Z,71.40
2019-01-28T05:52:39.897Z,71.40
2019-01-28T05:53:14.380Z,71.20
2019-01-28T05:53:48.994Z,71.30
2019-01-28T05:54:23.524Z,71.00
2019-01-28T05:54:58.022Z,71.60
2019-01-28T05:55:32.512Z,71.20
2019-01-28T05:56:07.092Z,71.10
2019-01-28T05:56:41.606Z,71.30
2019-01-28T05:57:16.300Z,71.10
2019-01-28T05:57:50.847Z,71.20
2019-01-28T05:58:25.324Z,71.10
2019-01-28T05:58:59.829Z,71.20
2019-01-28T05:59:34.312Z,71.00
2019-01-28T06:00:15.745Z,70.90
2019-01-28T06:00:50.616Z,71.00
2019-01-28T06:01:25.112Z,71.10
2019-01-28T06:01:59.768Z,71.10
2019-01-28T06:02:34.300Z,71.10
2019-01-28T06:03:08.845Z,71.10
2019-01-28T06:03:43.344Z,70.90
2019-01-28T06:04:17.887Z,70.80
2019-01-28T06:04:52.381Z,71.00
2019-01-28T06:05:27.012Z,70.70
2019-01-28T06:06:01.506Z,70.80
2019-01-28T06:06:35.992Z,70.50
2019-01-28T06:07:10.731Z,70.20
2019-01-28T06:07:45.726Z,70.20
2019-01-28T06:08:20.226Z,70.30
2019-01-28T06:08:55.151Z,70.40
2019-01-28T06:09:29.770Z,70.20
2019-01-28T06:10:07.597Z,70.20
2019-01-28T06:10:42.275Z,70.40
2019-01-28T06:11:17.832Z,70.20
2019-01-28T06:11:52.377Z,69.70
2019-01-28T06:12:26.939Z,69.60
2019-01-28T06:13:03.145Z,69.80
2019-01-28T06:13:37.648Z,69.90
2019-01-28T06:14:12.202Z,69.90
2019-01-28T06:14:46.697Z,69.50
2019-01-28T06:15:21.581Z,69.80
2019-01-28T06:15:56.474Z,70.00
2019-01-28T06:16:30.975Z,70.20
2019-01-28T06:17:05.556Z,70.20
2019-01-28T06:17:40.054Z,70.00
2019-01-28T06:18:14.560Z,70.00
2019-01-28T06:18:50.678Z,70.10
2019-01-28T06:19:25.167Z,70.20
2019-01-28T06:19:59.670Z,70.40
2019-01-28T06:20:34.231Z,70.30
2019-01-28T06:21:08.718Z,70.20
2019-01-28T06:21:43.225Z,70.20
2019-01-28T06:22:17.719Z,70.00
2019-01-28T06:22:52.579Z,70.10
2019-01-28T06:23:27.269Z,70.10
2019-01-28T06:24:01.903Z,70.10
2019-01-28T06:24:36.949Z,70.20
2019-01-28T06:25:11.724Z,70.30
2019-01-28T06:25:46.214Z,70.10
2019-01-28T06:26:21.956Z,70.10
2019-01-28T06:26:56.736Z,70.10
2019-01-28T06:27:31.223Z,70.10
2019-01-28T06:28:05.792Z,70.40
2019-01-28T06:28:40.290Z,70.80
2019-01-28T06:29:14.791Z,70.50
2019-01-28T06:29:49.280Z,70.20
2019-01-28T06:30:29.010Z,70.20
2019-01-28T06:31:03.497Z,70.10
2019-01-28T06:31:37.988Z,70.00
2019-01-28T06:32:12.479Z,70.00
2019-01-28T06:32:47.140Z,70.10
2019-01-28T06:33:21.627Z,70.10
2019-01-28T06:33:56.129Z,69.90
2019-01-28T06:34:30.939Z,70.00
2019-01-28T06:35:07.379Z,70.10
2019-01-28T06:35:41.890Z,70.20
2019-01-28T06:36:16.461Z,70.30
2019-01-28T06:36:50.946Z,70.10
2019-01-28T06:37:25.436Z,70.40
2019-01-28T06:38:01.395Z,70.40
2019-01-28T06:38:35.899Z,70.50
2019-01-28T06:39:10.681Z,70.60
2019-01-28T06:39:45.261Z,70.50
2019-01-28T06:40:25.263Z,70.50
2019-01-28T06:40:59.772Z,70.50
2019-01-28T06:41:34.408Z,70.40
2019-01-28T06:42:08.902Z,70.30
2019-01-28T06:42:43.659Z,70.30
2019-01-28T06:43:18.153Z,70.30
2019-01-28T06:43:52.654Z,70.40
2019-01-28T06:44:27.223Z,70.40
2019-01-28T06:45:02.284Z,70.20
2019-01-28T06:45:36.906Z,70.40
2019-01-28T06:46:11.977Z,70.60
2019-01-28T06:46:46.483Z,70.80
2019-01-28T06:47:20.997Z,70.60
2019-01-28T06:47:55.654Z,70.70
2019-01-28T06:48:30.155Z,70.90
2019-01-28T06:49:04.736Z,70.90
2019-01-28T06:49:39.235Z,71.10
2019-01-28T06:50:19.418Z,71.00
2019-01-28T06:50:53.973Z,70.90
2019-01-28T06:51:28.474Z,71.10
2019-01-28T06:52:03.125Z,71.00
2019-01-28T06:52:37.700Z,71.00
2019-01-28T06:53:14.098Z,71.00
2019-01-28T06:53:48.724Z,71.10
2019-01-28T06:54:23.293Z,71.10
2019-01-28T06:54:57.791Z,71.10
2019-01-28T06:55:32.380Z,71.00
2019-01-28T06:56:06.878Z,71.10
2019-01-28T06:56:41.369Z,71.10
2019-01-28T06:57:15.888Z,71.20
2019-01-28T06:57:50.786Z,71.30
2019-01-28T06:58:25.275Z,71.40
2019-01-28T06:59:00.187Z,71.70
2019-01-28T06:59:34.737Z,71.60
2019-01-28T07:00:20.901Z,71.70
2019-01-28T07:00:55.481Z,71.80
2019-01-28T07:01:29.986Z,71.50
2019-01-28T07:02:05.391Z,71.30
2019-01-28T07:02:39.940Z,71.10
2019-01-28T07:03:14.987Z,71.10
2019-01-28T07:03:49.561Z,71.10
2019-01-28T07:04:24.068Z,71.20
2019-01-28T07:04:58.834Z,71.20
2019-01-28T07:05:33.340Z,71.00
2019-01-28T07:06:07.823Z,70.80
2019-01-28T07:06:42.388Z,70.80
2019-01-28T07:07:16.947Z,70.60
2019-01-28T07:07:51.483Z,70.70
2019-01-28T07:08:27.524Z,70.80
2019-01-28T07:09:02.033Z,71.60
2019-01-28T07:09:36.615Z,70.90
2019-01-28T07:10:11.840Z,70.80
2019-01-28T07:10:46.823Z,71.00
2019-01-28T07:11:21.344Z,70.80
2019-01-28T07:11:55.865Z,70.60
2019-01-28T07:12:30.429Z,70.70
2019-01-28T07:13:05.490Z,70.80
2019-01-28T07:13:40.341Z,71.00
2019-01-28T07:14:14.916Z,71.00
2019-01-28T07:14:49.446Z,71.20
2019-01-28T07:15:24.648Z,71.40
2019-01-28T07:16:00.890Z,71.50
2019-01-28T07:16:35.431Z,72.40
2019-01-28T07:17:09.930Z,71.70
2019-01-28T07:17:44.425Z,71.70
2019-01-28T07:18:19.040Z,71.70
2019-01-28T07:18:53.586Z,71.80
2019-01-28T07:19:30.021Z,72.00
2019-01-28T07:20:13.124Z,72.10
2019-01-28T07:20:47.701Z,72.10
2019-01-28T07:21:22.218Z,71.90
2019-01-28T07:21:56.705Z,71.90
2019-01-28T07:22:31.218Z,72.10
2019-01-28T07:23:06.001Z,71.90
2019-01-28T07:23:41.555Z,72.00
2019-01-28T07:24:16.140Z,71.60
2019-01-28T07:24:50.628Z,71.50
2019-01-28T07:25:25.132Z,71.60
2019-01-28T07:25:59.672Z,71.90
2019-01-28T07:26:34.166Z,72.10
2019-01-28T07:27:08.695Z,72.30
2019-01-28T07:27:43.289Z,72.40
2019-01-28T07:28:17.778Z,72.40
2019-01-28T07:28:52.339Z,72.40
2019-01-28T07:29:47.855Z,72.60
2019-01-28T07:30:25.510Z,72.30
2019-01-28T07:31:00.050Z,72.10